sensor_id;sensor_type;location;lat;lon;timestamp;P1;durP1;ratioP1;P2;durP2;ratioP2
9657;SDS011;4867;48.112;11.622;2023-04-22T00:00:49;2.40;;;2.20;;
9657;SDS011;4867;48.112;11.622;2023-04-22T00:03:16;3.80;;;2.40;;
9657;SDS011;4867;48.112;11.622;2023-04-22T00:05:44;2.63;;;2.40;;
9657;SDS011;4867;48.112;11.622;2023-04-22T00:08:18;2.80;;;2.43;;
9657;SDS011;4867;48.112;11.622;2023-04-22T00:10:45;2.83;;;2.50;;
9657;SDS011;4867;48.112;11.622;2023-04-22T00:13:12;2.90;;;2.40;;
9657;SDS011;4867;48.112;11.622;2023-04-22T00:15:40;3.07;;;2.40;;
9657;SDS011;4867;48.112;11.622;2023-04-22T00:18:07;3.57;;;2.63;;
9657;SDS011;4867;48.112;11.622;2023-04-22T00:20:40;2.63;;;2.43;;
9657;SDS011;4867;48.112;11.622;2023-04-22T00:23:09;4.53;;;2.87;;
9657;SDS011;4867;48.112;11.622;2023-04-22T00:25:38;3.77;;;2.80;;
9657;SDS011;4867;48.112;11.622;2023-04-22T00:28:06;3.27;;;2.90;;
9657;SDS011;4867;48.112;11.622;2023-04-22T00:30:33;3.13;;;2.57;;
9657;SDS011;4867;48.112;11.622;2023-04-22T00:33:01;3.47;;;2.60;;
9657;SDS011;4867;48.112;11.622;2023-04-22T00:35:29;2.60;;;2.37;;
9657;SDS011;4867;48.112;11.622;2023-04-22T00:37:56;3.70;;;2.70;;
9657;SDS011;4867;48.112;11.622;2023-04-22T00:40:23;2.63;;;2.40;;
9657;SDS011;4867;48.112;11.622;2023-04-22T00:42:50;4.87;;;2.60;;
9657;SDS011;4867;48.112;11.622;2023-04-22T00:45:19;3.43;;;3.07;;
9657;SDS011;4867;48.112;11.622;2023-04-22T00:47:47;3.10;;;2.73;;
9657;SDS011;4867;48.112;11.622;2023-04-22T00:50:15;4.63;;;2.70;;
9657;SDS011;4867;48.112;11.622;2023-04-22T00:52:42;4.17;;;3.17;;
9657;SDS011;4867;48.112;11.622;2023-04-22T00:55:10;3.17;;;2.83;;
9657;SDS011;4867;48.112;11.622;2023-04-22T00:57:37;6.40;;;3.03;;
9657;SDS011;4867;48.112;11.622;2023-04-22T01:00:06;2.83;;;2.57;;
9657;SDS011;4867;48.112;11.622;2023-04-22T01:02:36;3.97;;;2.87;;
9657;SDS011;4867;48.112;11.622;2023-04-22T01:05:06;3.77;;;2.80;;
9657;SDS011;4867;48.112;11.622;2023-04-22T01:07:37;2.97;;;2.77;;
9657;SDS011;4867;48.112;11.622;2023-04-22T01:10:04;3.20;;;2.70;;
9657;SDS011;4867;48.112;11.622;2023-04-22T01:12:32;4.23;;;2.63;;
9657;SDS011;4867;48.112;11.622;2023-04-22T01:14:59;4.27;;;3.10;;
9657;SDS011;4867;48.112;11.622;2023-04-22T01:17:30;3.90;;;3.30;;
9657;SDS011;4867;48.112;11.622;2023-04-22T01:19:59;3.30;;;3.00;;
9657;SDS011;4867;48.112;11.622;2023-04-22T01:22:31;4.03;;;3.07;;
9657;SDS011;4867;48.112;11.622;2023-04-22T01:25:02;4.93;;;3.10;;
9657;SDS011;4867;48.112;11.622;2023-04-22T01:27:31;3.40;;;3.07;;
9657;SDS011;4867;48.112;11.622;2023-04-22T01:29:58;3.60;;;3.30;;
9657;SDS011;4867;48.112;11.622;2023-04-22T01:32:26;3.73;;;2.97;;
9657;SDS011;4867;48.112;11.622;2023-04-22T01:34:56;4.30;;;2.93;;
9657;SDS011;4867;48.112;11.622;2023-04-22T01:37:24;3.30;;;3.00;;
9657;SDS011;4867;48.112;11.622;2023-04-22T01:39:52;3.30;;;3.00;;
9657;SDS011;4867;48.112;11.622;2023-04-22T01:42:19;3.20;;;2.90;;
9657;SDS011;4867;48.112;11.622;2023-04-22T01:44:47;3.90;;;3.00;;
9657;SDS011;4867;48.112;11.622;2023-04-22T01:47:14;3.30;;;3.00;;
9657;SDS011;4867;48.112;11.622;2023-04-22T01:49:42;3.30;;;3.00;;
9657;SDS011;4867;48.112;11.622;2023-04-22T01:52:11;3.57;;;2.90;;
9657;SDS011;4867;48.112;11.622;2023-04-22T01:54:38;3.47;;;3.17;;
9657;SDS011;4867;48.112;11.622;2023-04-22T01:57:09;3.63;;;3.33;;
9657;SDS011;4867;48.112;11.622;2023-04-22T01:59:39;3.73;;;3.20;;
9657;SDS011;4867;48.112;11.622;2023-04-22T02:02:07;3.63;;;3.10;;
9657;SDS011;4867;48.112;11.622;2023-04-22T02:04:35;3.80;;;3.30;;
9657;SDS011;4867;48.112;11.622;2023-04-22T02:07:02;3.83;;;3.50;;
9657;SDS011;4867;48.112;11.622;2023-04-22T02:09:32;4.80;;;3.27;;
9657;SDS011;4867;48.112;11.622;2023-04-22T02:12:00;3.30;;;3.00;;
9657;SDS011;4867;48.112;11.622;2023-04-22T02:14:27;3.93;;;2.83;;
9657;SDS011;4867;48.112;11.622;2023-04-22T02:16:54;3.97;;;3.40;;
9657;SDS011;4867;48.112;11.622;2023-04-22T02:19:22;3.33;;;2.87;;
9657;SDS011;4867;48.112;11.622;2023-04-22T02:21:49;4.90;;;2.93;;
9657;SDS011;4867;48.112;11.622;2023-04-22T02:24:17;3.30;;;3.00;;
9657;SDS011;4867;48.112;11.622;2023-04-22T02:26:44;4.10;;;2.70;;
9657;SDS011;4867;48.112;11.622;2023-04-22T02:29:13;3.20;;;2.70;;
9657;SDS011;4867;48.112;11.622;2023-04-22T02:31:40;4.30;;;2.93;;
9657;SDS011;4867;48.112;11.622;2023-04-22T02:34:08;3.50;;;2.53;;
9657;SDS011;4867;48.112;11.622;2023-04-22T02:36:36;3.60;;;3.00;;
9657;SDS011;4867;48.112;11.622;2023-04-22T02:39:05;3.10;;;2.90;;
9657;SDS011;4867;48.112;11.622;2023-04-22T02:41:34;3.20;;;2.90;;
9657;SDS011;4867;48.112;11.622;2023-04-22T02:44:02;3.37;;;3.07;;
9657;SDS011;4867;48.112;11.622;2023-04-22T02:46:29;3.00;;;2.80;;
9657;SDS011;4867;48.112;11.622;2023-04-22T02:48:57;3.37;;;3.00;;
9657;SDS011;4867;48.112;11.622;2023-04-22T02:51:24;3.40;;;3.10;;
9657;SDS011;4867;48.112;11.622;2023-04-22T02:53:52;3.30;;;2.87;;
9657;SDS011;4867;48.112;11.622;2023-04-22T02:56:19;3.73;;;3.30;;
9657;SDS011;4867;48.112;11.622;2023-04-22T02:58:47;4.47;;;3.20;;
9657;SDS011;4867;48.112;11.622;2023-04-22T03:01:14;2.97;;;2.77;;
9657;SDS011;4867;48.112;11.622;2023-04-22T03:03:42;3.20;;;2.90;;
9657;SDS011;4867;48.112;11.622;2023-04-22T03:06:16;3.40;;;3.10;;
9657;SDS011;4867;48.112;11.622;2023-04-22T03:08:44;3.60;;;3.27;;
9657;SDS011;4867;48.112;11.622;2023-04-22T03:11:11;3.40;;;3.10;;
9657;SDS011;4867;48.112;11.622;2023-04-22T03:13:40;6.13;;;3.20;;
9657;SDS011;4867;48.112;11.622;2023-04-22T03:16:08;3.40;;;3.10;;
9657;SDS011;4867;48.112;11.622;2023-04-22T03:18:36;3.77;;;3.37;;
9657;SDS011;4867;48.112;11.622;2023-04-22T03:21:05;3.30;;;3.00;;
9657;SDS011;4867;48.112;11.622;2023-04-22T03:23:33;3.50;;;3.20;;
9657;SDS011;4867;48.112;11.622;2023-04-22T03:26:01;3.63;;;3.10;;
9657;SDS011;4867;48.112;11.622;2023-04-22T03:28:28;3.93;;;3.50;;
9657;SDS011;4867;48.112;11.622;2023-04-22T03:30:55;3.80;;;3.40;;
9657;SDS011;4867;48.112;11.622;2023-04-22T03:33:23;3.77;;;3.10;;
9657;SDS011;4867;48.112;11.622;2023-04-22T03:35:55;3.30;;;3.00;;
9657;SDS011;4867;48.112;11.622;2023-04-22T03:38:23;4.50;;;3.20;;
9657;SDS011;4867;48.112;11.622;2023-04-22T03:40:50;4.37;;;3.60;;
9657;SDS011;4867;48.112;11.622;2023-04-22T03:43:34;3.57;;;3.27;;
9657;SDS011;4867;48.112;11.622;2023-04-22T03:46:06;3.37;;;3.07;;
9657;SDS011;4867;48.112;11.622;2023-04-22T03:48:37;4.17;;;3.10;;
9657;SDS011;4867;48.112;11.622;2023-04-22T03:51:10;4.50;;;2.90;;
9657;SDS011;4867;48.112;11.622;2023-04-22T03:53:41;3.27;;;2.97;;
9657;SDS011;4867;48.112;11.622;2023-04-22T03:56:11;4.17;;;3.27;;
9657;SDS011;4867;48.112;11.622;2023-04-22T03:58:43;3.30;;;3.00;;
9657;SDS011;4867;48.112;11.622;2023-04-22T04:01:11;4.70;;;3.20;;
9657;SDS011;4867;48.112;11.622;2023-04-22T04:03:41;3.50;;;3.20;;
9657;SDS011;4867;48.112;11.622;2023-04-22T04:06:10;3.57;;;3.17;;
9657;SDS011;4867;48.112;11.622;2023-04-22T04:08:37;3.20;;;2.90;;
9657;SDS011;4867;48.112;11.622;2023-04-22T04:11:06;2.93;;;2.73;;
9657;SDS011;4867;48.112;11.622;2023-04-22T04:13:35;2.80;;;2.60;;
9657;SDS011;4867;48.112;11.622;2023-04-22T04:16:14;3.30;;;3.00;;
9657;SDS011;4867;48.112;11.622;2023-04-22T04:18:44;4.50;;;2.83;;
9657;SDS011;4867;48.112;11.622;2023-04-22T04:21:12;3.83;;;3.27;;
9657;SDS011;4867;48.112;11.622;2023-04-22T04:23:46;4.37;;;2.80;;
9657;SDS011;4867;48.112;11.622;2023-04-22T04:26:15;3.20;;;2.90;;
9657;SDS011;4867;48.112;11.622;2023-04-22T04:28:47;4.20;;;2.50;;
9657;SDS011;4867;48.112;11.622;2023-04-22T04:31:16;2.97;;;2.70;;
9657;SDS011;4867;48.112;11.622;2023-04-22T04:33:44;3.53;;;3.23;;
9657;SDS011;4867;48.112;11.622;2023-04-22T04:36:12;3.10;;;2.80;;
9657;SDS011;4867;48.112;11.622;2023-04-22T04:38:41;3.20;;;2.90;;
9657;SDS011;4867;48.112;11.622;2023-04-22T04:41:09;3.33;;;2.93;;
9657;SDS011;4867;48.112;11.622;2023-04-22T04:43:37;3.20;;;2.90;;
9657;SDS011;4867;48.112;11.622;2023-04-22T04:46:23;3.77;;;2.80;;
9657;SDS011;4867;48.112;11.622;2023-04-22T04:48:51;4.13;;;2.80;;
9657;SDS011;4867;48.112;11.622;2023-04-22T04:51:20;3.07;;;2.60;;
9657;SDS011;4867;48.112;11.622;2023-04-22T04:53:51;3.03;;;2.73;;
9657;SDS011;4867;48.112;11.622;2023-04-22T04:56:19;2.60;;;2.40;;
9657;SDS011;4867;48.112;11.622;2023-04-22T04:58:47;2.90;;;2.70;;
9657;SDS011;4867;48.112;11.622;2023-04-22T05:01:18;3.30;;;2.90;;
9657;SDS011;4867;48.112;11.622;2023-04-22T05:03:46;3.40;;;2.90;;
9657;SDS011;4867;48.112;11.622;2023-04-22T05:06:16;3.33;;;2.87;;
9657;SDS011;4867;48.112;11.622;2023-04-22T05:08:52;2.93;;;2.60;;
9657;SDS011;4867;48.112;11.622;2023-04-22T05:11:19;3.63;;;3.10;;
9657;SDS011;4867;48.112;11.622;2023-04-22T05:13:49;4.90;;;3.10;;
9657;SDS011;4867;48.112;11.622;2023-04-22T05:16:23;3.57;;;3.10;;
9657;SDS011;4867;48.112;11.622;2023-04-22T05:18:51;3.30;;;3.00;;
9657;SDS011;4867;48.112;11.622;2023-04-22T05:21:19;3.87;;;2.77;;
9657;SDS011;4867;48.112;11.622;2023-04-22T05:23:46;3.13;;;2.70;;
9657;SDS011;4867;48.112;11.622;2023-04-22T05:26:14;3.07;;;2.40;;
9657;SDS011;4867;48.112;11.622;2023-04-22T05:28:42;2.50;;;2.30;;
9657;SDS011;4867;48.112;11.622;2023-04-22T05:31:10;2.90;;;2.40;;
9657;SDS011;4867;48.112;11.622;2023-04-22T05:33:37;2.20;;;2.00;;
9657;SDS011;4867;48.112;11.622;2023-04-22T05:36:05;3.70;;;2.30;;
9657;SDS011;4867;48.112;11.622;2023-04-22T05:38:33;2.70;;;2.30;;
9657;SDS011;4867;48.112;11.622;2023-04-22T05:41:00;2.17;;;1.93;;
9657;SDS011;4867;48.112;11.622;2023-04-22T05:43:28;5.07;;;2.37;;
9657;SDS011;4867;48.112;11.622;2023-04-22T05:46:02;2.43;;;2.20;;
9657;SDS011;4867;48.112;11.622;2023-04-22T05:48:32;3.17;;;2.30;;
9657;SDS011;4867;48.112;11.622;2023-04-22T05:51:03;3.13;;;1.90;;
9657;SDS011;4867;48.112;11.622;2023-04-22T05:53:30;1.97;;;1.77;;
9657;SDS011;4867;48.112;11.622;2023-04-22T05:55:59;2.10;;;1.90;;
9657;SDS011;4867;48.112;11.622;2023-04-22T05:58:27;4.33;;;2.20;;
9657;SDS011;4867;48.112;11.622;2023-04-22T06:00:59;3.40;;;2.10;;
9657;SDS011;4867;48.112;11.622;2023-04-22T06:03:45;2.00;;;1.80;;
9657;SDS011;4867;48.112;11.622;2023-04-22T06:06:12;1.97;;;1.73;;
9657;SDS011;4867;48.112;11.622;2023-04-22T06:08:40;2.33;;;1.70;;
9657;SDS011;4867;48.112;11.622;2023-04-22T06:11:07;2.10;;;1.90;;
9657;SDS011;4867;48.112;11.622;2023-04-22T06:13:36;2.27;;;1.80;;
9657;SDS011;4867;48.112;11.622;2023-04-22T06:16:04;2.10;;;1.90;;
9657;SDS011;4867;48.112;11.622;2023-04-22T06:18:33;2.80;;;1.90;;
9657;SDS011;4867;48.112;11.622;2023-04-22T06:21:07;1.60;;;1.50;;
9657;SDS011;4867;48.112;11.622;2023-04-22T06:23:35;1.60;;;1.50;;
9657;SDS011;4867;48.112;11.622;2023-04-22T06:26:02;2.80;;;1.60;;
9657;SDS011;4867;48.112;11.622;2023-04-22T06:28:30;1.70;;;1.60;;
9657;SDS011;4867;48.112;11.622;2023-04-22T06:31:03;3.13;;;1.67;;
9657;SDS011;4867;48.112;11.622;2023-04-22T06:33:30;1.83;;;1.70;;
9657;SDS011;4867;48.112;11.622;2023-04-22T06:35:57;1.50;;;1.40;;
9657;SDS011;4867;48.112;11.622;2023-04-22T06:38:26;2.43;;;1.67;;
9657;SDS011;4867;48.112;11.622;2023-04-22T06:41:12;1.77;;;1.57;;
9657;SDS011;4867;48.112;11.622;2023-04-22T06:43:42;2.00;;;1.63;;
9657;SDS011;4867;48.112;11.622;2023-04-22T06:46:47;1.60;;;1.50;;
9657;SDS011;4867;48.112;11.622;2023-04-22T06:49:33;2.30;;;1.63;;
9657;SDS011;4867;48.112;11.622;2023-04-22T06:52:19;2.70;;;1.70;;
9657;SDS011;4867;48.112;11.622;2023-04-22T06:54:51;2.13;;;1.70;;
9657;SDS011;4867;48.112;11.622;2023-04-22T06:57:19;2.03;;;1.80;;
9657;SDS011;4867;48.112;11.622;2023-04-22T06:59:46;1.60;;;1.47;;
9657;SDS011;4867;48.112;11.622;2023-04-22T07:02:14;1.40;;;1.30;;
9657;SDS011;4867;48.112;11.622;2023-04-22T07:04:42;1.67;;;1.57;;
9657;SDS011;4867;48.112;11.622;2023-04-22T07:07:10;1.70;;;1.60;;
9657;SDS011;4867;48.112;11.622;2023-04-22T07:09:37;1.87;;;1.40;;
9657;SDS011;4867;48.112;11.622;2023-04-22T07:12:05;1.87;;;1.70;;
9657;SDS011;4867;48.112;11.622;2023-04-22T07:14:32;1.70;;;1.60;;
9657;SDS011;4867;48.112;11.622;2023-04-22T07:17:00;1.60;;;1.50;;
9657;SDS011;4867;48.112;11.622;2023-04-22T07:19:27;1.67;;;1.50;;
9657;SDS011;4867;48.112;11.622;2023-04-22T07:21:55;1.73;;;1.50;;
9657;SDS011;4867;48.112;11.622;2023-04-22T07:24:22;1.77;;;1.60;;
9657;SDS011;4867;48.112;11.622;2023-04-22T07:26:50;1.60;;;1.50;;
9657;SDS011;4867;48.112;11.622;2023-04-22T07:29:17;1.50;;;1.40;;
9657;SDS011;4867;48.112;11.622;2023-04-22T07:31:44;1.73;;;1.40;;
9657;SDS011;4867;48.112;11.622;2023-04-22T07:34:11;1.60;;;1.50;;
9657;SDS011;4867;48.112;11.622;2023-04-22T07:36:40;1.83;;;1.50;;
9657;SDS011;4867;48.112;11.622;2023-04-22T07:39:07;1.70;;;1.60;;
9657;SDS011;4867;48.112;11.622;2023-04-22T07:41:35;1.73;;;1.40;;
9657;SDS011;4867;48.112;11.622;2023-04-22T07:44:02;2.33;;;1.60;;
9657;SDS011;4867;48.112;11.622;2023-04-22T07:46:29;2.27;;;1.70;;
9657;SDS011;4867;48.112;11.622;2023-04-22T07:48:57;1.70;;;1.60;;
9657;SDS011;4867;48.112;11.622;2023-04-22T07:51:24;2.33;;;1.90;;
9657;SDS011;4867;48.112;11.622;2023-04-22T07:53:51;3.07;;;2.77;;
9657;SDS011;4867;48.112;11.622;2023-04-22T07:56:18;2.97;;;1.80;;
9657;SDS011;4867;48.112;11.622;2023-04-22T07:58:45;1.80;;;1.70;;
9657;SDS011;4867;48.112;11.622;2023-04-22T08:01:13;1.90;;;1.77;;
9657;SDS011;4867;48.112;11.622;2023-04-22T08:03:40;1.80;;;1.70;;
9657;SDS011;4867;48.112;11.622;2023-04-22T08:06:07;1.60;;;1.50;;
9657;SDS011;4867;48.112;11.622;2023-04-22T08:08:35;1.40;;;1.30;;
9657;SDS011;4867;48.112;11.622;2023-04-22T08:11:02;1.63;;;1.40;;
9657;SDS011;4867;48.112;11.622;2023-04-22T08:13:29;1.67;;;1.57;;
9657;SDS011;4867;48.112;11.622;2023-04-22T08:15:56;2.33;;;1.50;;
9657;SDS011;4867;48.112;11.622;2023-04-22T08:18:25;1.50;;;1.40;;
9657;SDS011;4867;48.112;11.622;2023-04-22T08:20:52;1.80;;;1.70;;
9657;SDS011;4867;48.112;11.622;2023-04-22T08:23:19;1.70;;;1.60;;
9657;SDS011;4867;48.112;11.622;2023-04-22T08:25:47;2.07;;;1.80;;
9657;SDS011;4867;48.112;11.622;2023-04-22T08:28:14;3.00;;;1.50;;
9657;SDS011;4867;48.112;11.622;2023-04-22T08:30:42;1.73;;;1.37;;
9657;SDS011;4867;48.112;11.622;2023-04-22T08:33:09;1.50;;;1.40;;
9657;SDS011;4867;48.112;11.622;2023-04-22T08:35:37;2.80;;;1.70;;
9657;SDS011;4867;48.112;11.622;2023-04-22T08:38:06;2.53;;;1.50;;
9657;SDS011;4867;48.112;11.622;2023-04-22T08:40:33;1.30;;;1.20;;
9657;SDS011;4867;48.112;11.622;2023-04-22T08:43:01;1.50;;;1.40;;
9657;SDS011;4867;48.112;11.622;2023-04-22T08:45:28;1.60;;;1.50;;
9657;SDS011;4867;48.112;11.622;2023-04-22T08:47:56;1.53;;;1.43;;
9657;SDS011;4867;48.112;11.622;2023-04-22T08:50:24;1.80;;;1.30;;
9657;SDS011;4867;48.112;11.622;2023-04-22T08:52:51;1.60;;;1.37;;
9657;SDS011;4867;48.112;11.622;2023-04-22T08:55:19;2.07;;;1.43;;
9657;SDS011;4867;48.112;11.622;2023-04-22T08:57:46;2.40;;;1.40;;
9657;SDS011;4867;48.112;11.622;2023-04-22T09:00:13;1.67;;;1.43;;
9657;SDS011;4867;48.112;11.622;2023-04-22T09:02:42;1.87;;;1.50;;
9657;SDS011;4867;48.112;11.622;2023-04-22T09:05:10;1.60;;;1.50;;
9657;SDS011;4867;48.112;11.622;2023-04-22T09:07:40;1.60;;;1.50;;
9657;SDS011;4867;48.112;11.622;2023-04-22T09:10:08;1.63;;;1.30;;
9657;SDS011;4867;48.112;11.622;2023-04-22T09:12:37;1.70;;;1.60;;
9657;SDS011;4867;48.112;11.622;2023-04-22T09:15:06;2.77;;;1.30;;
9657;SDS011;4867;48.112;11.622;2023-04-22T09:17:35;1.37;;;1.23;;
9657;SDS011;4867;48.112;11.622;2023-04-22T09:20:05;1.53;;;1.43;;
9657;SDS011;4867;48.112;11.622;2023-04-22T09:22:37;1.23;;;1.13;;
9657;SDS011;4867;48.112;11.622;2023-04-22T09:27:46;2.37;;;1.27;;
9657;SDS011;4867;48.112;11.622;2023-04-22T09:30:15;3.00;;;1.37;;
9657;SDS011;4867;48.112;11.622;2023-04-22T09:32:52;1.47;;;1.37;;
9657;SDS011;4867;48.112;11.622;2023-04-22T09:37:55;1.50;;;1.37;;
9657;SDS011;4867;48.112;11.622;2023-04-22T09:40:24;1.50;;;1.40;;
9657;SDS011;4867;48.112;11.622;2023-04-22T09:42:53;1.93;;;1.40;;
9657;SDS011;4867;48.112;11.622;2023-04-22T09:45:29;2.90;;;1.40;;
9657;SDS011;4867;48.112;11.622;2023-04-22T09:48:02;5.03;;;1.50;;
9657;SDS011;4867;48.112;11.622;2023-04-22T09:50:35;1.63;;;1.50;;
9657;SDS011;4867;48.112;11.622;2023-04-22T09:53:05;1.70;;;1.47;;
9657;SDS011;4867;48.112;11.622;2023-04-22T09:55:36;1.40;;;1.30;;
9657;SDS011;4867;48.112;11.622;2023-04-22T09:58:06;1.67;;;1.57;;
9657;SDS011;4867;48.112;11.622;2023-04-22T10:00:40;2.57;;;1.43;;
9657;SDS011;4867;48.112;11.622;2023-04-22T10:03:12;1.50;;;1.40;;
9657;SDS011;4867;48.112;11.622;2023-04-22T10:05:40;1.67;;;1.57;;
9657;SDS011;4867;48.112;11.622;2023-04-22T10:08:08;1.80;;;1.50;;
9657;SDS011;4867;48.112;11.622;2023-04-22T10:10:36;1.70;;;1.60;;
9657;SDS011;4867;48.112;11.622;2023-04-22T10:13:04;3.70;;;1.83;;
9657;SDS011;4867;48.112;11.622;2023-04-22T10:15:39;2.30;;;2.13;;
9657;SDS011;4867;48.112;11.622;2023-04-22T10:18:21;1.63;;;1.53;;
9657;SDS011;4867;48.112;11.622;2023-04-22T10:20:51;1.63;;;1.53;;
9657;SDS011;4867;48.112;11.622;2023-04-22T10:23:22;2.23;;;2.00;;
9657;SDS011;4867;48.112;11.622;2023-04-22T10:25:53;2.47;;;1.70;;
9657;SDS011;4867;48.112;11.622;2023-04-22T10:28:22;2.30;;;1.60;;
9657;SDS011;4867;48.112;11.622;2023-04-22T10:30:53;1.70;;;1.60;;
9657;SDS011;4867;48.112;11.622;2023-04-22T10:38:37;3.00;;;1.53;;
9657;SDS011;4867;48.112;11.622;2023-04-22T10:41:06;2.33;;;1.87;;
9657;SDS011;4867;48.112;11.622;2023-04-22T10:43:42;1.60;;;1.50;;
9657;SDS011;4867;48.112;11.622;2023-04-22T10:49:11;2.80;;;1.60;;
9657;SDS011;4867;48.112;11.622;2023-04-22T10:51:47;1.60;;;1.50;;
9657;SDS011;4867;48.112;11.622;2023-04-22T10:57:02;1.60;;;1.47;;
9657;SDS011;4867;48.112;11.622;2023-04-22T10:59:31;1.80;;;1.70;;
9657;SDS011;4867;48.112;11.622;2023-04-22T11:02:04;1.40;;;1.30;;
9657;SDS011;4867;48.112;11.622;2023-04-22T11:04:32;1.60;;;1.50;;
9657;SDS011;4867;48.112;11.622;2023-04-22T11:07:42;1.40;;;1.30;;
9657;SDS011;4867;48.112;11.622;2023-04-22T11:10:00;1.53;;;1.43;;
9657;SDS011;4867;48.112;11.622;2023-04-22T11:15:04;2.30;;;1.40;;
9657;SDS011;4867;48.112;11.622;2023-04-22T11:17:35;1.60;;;1.50;;
9657;SDS011;4867;48.112;11.622;2023-04-22T11:20:04;1.40;;;1.30;;
9657;SDS011;4867;48.112;11.622;2023-04-22T11:22:36;1.60;;;1.43;;
9657;SDS011;4867;48.112;11.622;2023-04-22T11:25:08;1.60;;;1.50;;
9657;SDS011;4867;48.112;11.622;2023-04-22T11:27:36;2.00;;;1.40;;
9657;SDS011;4867;48.112;11.622;2023-04-22T11:32:37;1.73;;;1.40;;
9657;SDS011;4867;48.112;11.622;2023-04-22T11:35:06;1.70;;;1.60;;
9657;SDS011;4867;48.112;11.622;2023-04-22T11:37:43;1.90;;;1.43;;
9657;SDS011;4867;48.112;11.622;2023-04-22T11:40:13;2.03;;;1.43;;
9657;SDS011;4867;48.112;11.622;2023-04-22T11:42:58;1.80;;;1.70;;
9657;SDS011;4867;48.112;11.622;2023-04-22T11:45:30;3.23;;;2.93;;
9657;SDS011;4867;48.112;11.622;2023-04-22T11:47:59;1.90;;;1.80;;
9657;SDS011;4867;48.112;11.622;2023-04-22T11:50:45;1.97;;;1.73;;
9657;SDS011;4867;48.112;11.622;2023-04-22T11:53:14;1.60;;;1.50;;
9657;SDS011;4867;48.112;11.622;2023-04-22T11:55:51;1.90;;;1.73;;
9657;SDS011;4867;48.112;11.622;2023-04-22T11:58:19;1.47;;;1.37;;
9657;SDS011;4867;48.112;11.622;2023-04-22T12:00:51;1.90;;;1.47;;
9657;SDS011;4867;48.112;11.622;2023-04-22T12:03:26;2.90;;;1.70;;
9657;SDS011;4867;48.112;11.622;2023-04-22T12:05:58;2.50;;;2.30;;
9657;SDS011;4867;48.112;11.622;2023-04-22T12:08:31;1.70;;;1.52;;
9657;SDS011;4867;48.112;11.622;2023-04-22T12:11:03;1.63;;;1.50;;
9657;SDS011;4867;48.112;11.622;2023-04-22T12:13:39;1.70;;;1.53;;
9657;SDS011;4867;48.112;11.622;2023-04-22T12:16:09;1.80;;;1.57;;
9657;SDS011;4867;48.112;11.622;2023-04-22T12:18:38;6.90;;;1.90;;
9657;SDS011;4867;48.112;11.622;2023-04-22T12:26:11;1.50;;;1.40;;
9657;SDS011;4867;48.112;11.622;2023-04-22T12:28:39;1.80;;;1.70;;
9657;SDS011;4867;48.112;11.622;2023-04-22T12:31:08;1.98;;;1.83;;
9657;SDS011;4867;48.112;11.622;2023-04-22T12:33:36;1.90;;;1.80;;
9657;SDS011;4867;48.112;11.622;2023-04-22T12:36:05;1.50;;;1.40;;
9657;SDS011;4867;48.112;11.622;2023-04-22T12:38:33;2.60;;;1.50;;
9657;SDS011;4867;48.112;11.622;2023-04-22T12:41:01;1.95;;;1.55;;
9657;SDS011;4867;48.112;11.622;2023-04-22T12:43:29;1.60;;;1.50;;
9657;SDS011;4867;48.112;11.622;2023-04-22T12:45:57;1.83;;;1.42;;
9657;SDS011;4867;48.112;11.622;2023-04-22T12:48:25;1.80;;;1.70;;
9657;SDS011;4867;48.112;11.622;2023-04-22T12:50:52;1.83;;;1.50;;
9657;SDS011;4867;48.112;11.622;2023-04-22T12:53:20;1.70;;;1.60;;
9657;SDS011;4867;48.112;11.622;2023-04-22T12:55:47;1.50;;;1.40;;
9657;SDS011;4867;48.112;11.622;2023-04-22T12:58:14;2.13;;;1.80;;
9657;SDS011;4867;48.112;11.622;2023-04-22T13:00:42;1.90;;;1.80;;
9657;SDS011;4867;48.112;11.622;2023-04-22T13:03:09;1.95;;;1.73;;
9657;SDS011;4867;48.112;11.622;2023-04-22T13:05:37;1.77;;;1.60;;
9657;SDS011;4867;48.112;11.622;2023-04-22T13:08:05;2.88;;;1.70;;
9657;SDS011;4867;48.112;11.622;2023-04-22T13:10:34;2.13;;;1.70;;
9657;SDS011;4867;48.112;11.622;2023-04-22T13:13:01;1.63;;;1.52;;
9657;SDS011;4867;48.112;11.622;2023-04-22T13:15:45;1.73;;;1.63;;
9657;SDS011;4867;48.112;11.622;2023-04-22T13:18:13;3.92;;;1.70;;
9657;SDS011;4867;48.112;11.622;2023-04-22T13:20:42;2.10;;;1.80;;
9657;SDS011;4867;48.112;11.622;2023-04-22T13:23:09;3.38;;;2.00;;
9657;SDS011;4867;48.112;11.622;2023-04-22T13:25:38;3.03;;;1.65;;
9657;SDS011;4867;48.112;11.622;2023-04-22T13:28:05;3.25;;;1.60;;
9657;SDS011;4867;48.112;11.622;2023-04-22T13:30:32;2.00;;;1.80;;
9657;SDS011;4867;48.112;11.622;2023-04-22T13:33:00;2.17;;;2.08;;
9657;SDS011;4867;48.112;11.622;2023-04-22T13:35:27;2.63;;;2.30;;
9657;SDS011;4867;48.112;11.622;2023-04-22T13:37:54;5.05;;;1.90;;
9657;SDS011;4867;48.112;11.622;2023-04-22T13:40:21;4.18;;;1.73;;
9657;SDS011;4867;48.112;11.622;2023-04-22T13:42:49;2.75;;;1.50;;
9657;SDS011;4867;48.112;11.622;2023-04-22T13:45:16;1.70;;;1.60;;
9657;SDS011;4867;48.112;11.622;2023-04-22T13:47:43;1.90;;;1.80;;
9657;SDS011;4867;48.112;11.622;2023-04-22T13:50:10;2.22;;;1.75;;
9657;SDS011;4867;48.112;11.622;2023-04-22T13:52:38;2.42;;;1.98;;
9657;SDS011;4867;48.112;11.622;2023-04-22T13:55:05;1.95;;;1.70;;
9657;SDS011;4867;48.112;11.622;2023-04-22T13:57:33;4.40;;;1.60;;
9657;SDS011;4867;48.112;11.622;2023-04-22T14:00:00;2.65;;;1.60;;
9657;SDS011;4867;48.112;11.622;2023-04-22T14:02:37;2.40;;;2.20;;
9657;SDS011;4867;48.112;11.622;2023-04-22T14:05:05;2.97;;;1.98;;
9657;SDS011;4867;48.112;11.622;2023-04-22T14:07:33;2.08;;;1.70;;
9657;SDS011;4867;48.112;11.622;2023-04-22T14:10:00;1.77;;;1.67;;
9657;SDS011;4867;48.112;11.622;2023-04-22T14:12:28;2.03;;;1.70;;
9657;SDS011;4867;48.112;11.622;2023-04-22T14:15:04;2.22;;;1.63;;
9657;SDS011;4867;48.112;11.622;2023-04-22T14:17:32;1.80;;;1.70;;
9657;SDS011;4867;48.112;11.622;2023-04-22T14:19:59;3.03;;;2.33;;
9657;SDS011;4867;48.112;11.622;2023-04-22T14:22:26;2.42;;;2.22;;
9657;SDS011;4867;48.112;11.622;2023-04-22T14:24:53;1.90;;;1.80;;
9657;SDS011;4867;48.112;11.622;2023-04-22T14:27:21;1.80;;;1.70;;
9657;SDS011;4867;48.112;11.622;2023-04-22T14:29:48;3.00;;;1.80;;
9657;SDS011;4867;48.112;11.622;2023-04-22T14:32:18;2.13;;;1.90;;
9657;SDS011;4867;48.112;11.622;2023-04-22T14:34:46;2.15;;;1.75;;
9657;SDS011;4867;48.112;11.622;2023-04-22T14:37:13;2.08;;;1.85;;
9657;SDS011;4867;48.112;11.622;2023-04-22T14:39:41;2.40;;;2.20;;
9657;SDS011;4867;48.112;11.622;2023-04-22T14:42:08;2.70;;;2.22;;
9657;SDS011;4867;48.112;11.622;2023-04-22T14:44:35;5.70;;;5.15;;
9657;SDS011;4867;48.112;11.622;2023-04-22T14:47:03;2.88;;;2.40;;
9657;SDS011;4867;48.112;11.622;2023-04-22T14:49:30;3.28;;;1.80;;
9657;SDS011;4867;48.112;11.622;2023-04-22T14:51:59;3.05;;;2.20;;
9657;SDS011;4867;48.112;11.622;2023-04-22T14:54:27;8.57;;;6.10;;
9657;SDS011;4867;48.112;11.622;2023-04-22T14:56:54;3.15;;;2.20;;
9657;SDS011;4867;48.112;11.622;2023-04-22T14:59:22;6.05;;;4.10;;
9657;SDS011;4867;48.112;11.622;2023-04-22T15:01:49;2.97;;;2.15;;
9657;SDS011;4867;48.112;11.622;2023-04-22T15:04:16;2.60;;;2.20;;
9657;SDS011;4867;48.112;11.622;2023-04-22T15:06:44;2.88;;;2.30;;
9657;SDS011;4867;48.112;11.622;2023-04-22T15:09:12;2.95;;;2.00;;
9657;SDS011;4867;48.112;11.622;2023-04-22T15:11:41;2.53;;;2.30;;
9657;SDS011;4867;48.112;11.622;2023-04-22T15:14:08;2.42;;;2.13;;
9657;SDS011;4867;48.112;11.622;2023-04-22T15:16:35;2.50;;;2.08;;
9657;SDS011;4867;48.112;11.622;2023-04-22T15:19:02;2.30;;;2.13;;
9657;SDS011;4867;48.112;11.622;2023-04-22T15:21:29;2.83;;;2.10;;
9657;SDS011;4867;48.112;11.622;2023-04-22T15:23:57;4.45;;;2.10;;
9657;SDS011;4867;48.112;11.622;2023-04-22T15:26:24;2.70;;;2.50;;
9657;SDS011;4867;48.112;11.622;2023-04-22T15:28:51;2.58;;;2.38;;
9657;SDS011;4867;48.112;11.622;2023-04-22T15:31:19;2.63;;;2.30;;
9657;SDS011;4867;48.112;11.622;2023-04-22T15:33:46;2.73;;;2.20;;
9657;SDS011;4867;48.112;11.622;2023-04-22T15:36:13;2.70;;;2.27;;
9657;SDS011;4867;48.112;11.622;2023-04-22T15:38:43;4.63;;;2.00;;